Time;durP1;ratioP1;P1;durP2;ratioP2;P2;SDS_P1;SDS_P2;PMS_P1;PMS_P2;Temp;Humidity;BMP_temperature;BMP_pressure;BME280_temperature;BME280_humidity;BME280_pressure;Samples;Min_cycle;Max_cycle;Signal;HPM_P1;HPM_P2
2021/05/04 00:01:19;;;;;;;17.00;6.47;;;;;;;5.85;77.97;100604.39;5152387;56;1138522;-74
2021/05/04 00:06:24;;;;;;;10.53;5.92;;;;;;;5.81;77.93;100594.99;5152409;56;1136621;-73
2021/05/04 00:11:30;;;;;;;14.28;7.45;;;;;;;5.74;78.09;100586.25;5152422;56;1136794;-74
2021/05/04 00:16:35;;;;;;;15.20;6.97;;;;;;;5.73;78.45;100585.41;5152239;56;1136666;-74
2021/05/04 00:21:41;;;;;;;14.67;6.93;;;;;;;5.74;78.53;100587.10;5152221;56;1136707;-73
2021/05/04 00:26:47;;;;;;;10.77;5.70;;;;;;;5.73;78.19;100580.16;5152154;56;1136986;-73
2021/05/04 00:31:52;;;;;;;13.00;7.53;;;;;;;5.71;78.10;100574.15;5151974;56;1138746;-74
2021/05/04 00:36:58;;;;;;;11.77;7.03;;;;;;;5.70;78.03;100571.61;5152114;56;1138796;-74
2021/05/04 00:42:05;;;;;;;19.55;9.33;;;;;;;5.70;78.18;100565.89;5151767;56;1138793;-73
2021/05/04 00:47:11;;;;;;;29.77;13.07;;;;;;;5.74;78.47;100562.64;5152776;56;1136939;-74
2021/05/04 00:52:17;;;;;;;16.83;9.07;;;;;;;5.79;78.50;100551.42;5152876;56;1138929;-74
2021/05/04 00:57:24;;;;;;;17.67;9.47;;;;;;;5.77;78.21;100539.70;5153115;56;1136632;-74
2021/05/04 01:02:30;;;;;;;43.92;17.05;;;;;;;5.69;77.91;100536.65;5153216;56;1136518;-74
2021/05/04 01:07:36;;;;;;;68.30;27.70;;;;;;;5.62;77.84;100530.08;5153022;56;1138478;-73
2021/05/04 01:12:42;;;;;;;20.13;9.43;;;;;;;5.56;77.53;100531.72;5152635;56;1138526;-74
2021/05/04 01:17:47;;;;;;;34.87;12.53;;;;;;;5.51;77.39;100522.80;5152911;56;1138440;-74
2021/05/04 01:22:54;;;;;;;32.10;11.10;;;;;;;5.43;77.41;100511.91;5152394;56;1140591;-74
2021/05/04 01:27:59;;;;;;;24.00;9.37;;;;;;;5.34;77.61;100508.97;5152554;56;1138497;-73
2021/05/04 01:33:05;;;;;;;26.10;9.60;;;;;;;5.32;77.88;100506.89;5151471;56;1136415;-74
2021/05/04 01:38:11;;;;;;;27.40;8.87;;;;;;;5.27;77.79;100504.05;5151541;56;1136304;-73
2021/05/04 01:43:17;;;;;;;15.10;7.10;;;;;;;5.13;77.45;100497.42;5151557;56;1136389;-74
2021/05/04 01:48:22;;;;;;;22.90;8.80;;;;;;;5.09;77.54;100487.19;5151393;56;1136409;-73
2021/05/04 01:53:28;;;;;;;14.38;7.35;;;;;;;5.11;77.63;100484.02;5151304;56;1138813;-73
2021/05/04 01:58:33;;;;;;;14.33;7.57;;;;;;;5.13;77.81;100475.14;5151148;56;1138715;-74
2021/05/04 02:03:39;;;;;;;16.33;9.83;;;;;;;5.14;77.96;100472.05;5151240;56;1136732;-73
2021/05/04 02:08:45;;;;;;;17.97;9.73;;;;;;;5.13;77.81;100463.34;5151341;56;1136435;-73
2021/05/04 02:13:50;;;;;;;18.77;11.10;;;;;;;5.06;77.74;100451.50;5151294;56;1136708;-73
2021/05/04 02:18:56;;;;;;;16.63;8.60;;;;;;;5.02;77.83;100440.83;5151280;56;1138464;-74
2021/05/04 02:24:02;;;;;;;16.03;7.87;;;;;;;5.01;77.68;100429.96;5151436;56;1136194;-73
2021/05/04 02:29:07;;;;;;;12.87;7.40;;;;;;;5.00;77.51;100428.73;5151470;56;1138309;-73
2021/05/04 02:34:13;;;;;;;14.07;8.07;;;;;;;5.01;77.68;100426.49;5152326;56;1136389;-73
2021/05/04 02:39:19;;;;;;;16.97;9.20;;;;;;;4.98;77.79;100419.64;5152715;56;1136379;-73
2021/05/04 02:44:25;;;;;;;16.93;9.20;;;;;;;4.95;77.84;100418.50;5152633;56;1136558;-74
2021/05/04 02:49:30;;;;;;;15.67;8.03;;;;;;;4.91;77.76;100404.72;5152914;56;1136727;-73
2021/05/04 02:54:36;;;;;;;14.75;8.15;;;;;;;4.85;77.63;100396.37;5152567;56;1136933;-73
2021/05/04 02:59:42;;;;;;;13.23;7.83;;;;;;;4.79;77.54;100386.22;5152480;56;1136701;-74
2021/05/04 03:04:48;;;;;;;17.87;8.20;;;;;;;4.79;77.62;100371.81;5152352;56;1138792;-74
2021/05/04 03:09:53;;;;;;;17.57;8.07;;;;;;;4.81;77.79;100368.64;5152489;56;1137123;-74
2021/05/04 03:14:59;;;;;;;13.63;7.70;;;;;;;4.83;77.86;100368.09;5152726;56;1136629;-74
2021/05/04 03:20:07;;;;;;;11.87;7.37;;;;;;;4.80;77.90;100359.09;5152646;56;1136641;-73
2021/05/04 03:25:12;;;;;;;17.53;8.17;;;;;;;4.77;77.77;100352.23;5152656;56;1136621;-73
2021/05/04 03:30:18;;;;;;;21.00;9.83;;;;;;;4.81;77.71;100349.84;5152460;56;1138524;-74
2021/05/04 03:35:24;;;;;;;21.73;10.37;;;;;;;4.86;77.69;100343.88;5152444;56;1138571;-73
2021/05/04 03:40:31;;;;;;;16.13;8.40;;;;;;;4.90;77.80;100333.58;5152577;56;1138766;-73
2021/05/04 03:45:37;;;;;;;16.62;8.05;;;;;;;4.92;77.79;100332.19;5152768;56;1136750;-74
2021/05/04 03:50:42;;;;;;;12.00;7.33;;;;;;;4.89;77.70;100321.41;5152987;56;1136937;-74
2021/05/04 03:55:49;;;;;;;11.63;6.77;;;;;;;4.86;77.58;100313.75;5152806;56;1136669;-74
2021/05/04 04:00:54;;;;;;;11.57;7.13;;;;;;;4.81;77.48;100306.60;5152717;56;1136758;-74
2021/05/04 04:06:00;;;;;;;10.53;6.40;;;;;;;4.83;77.50;100302.59;5152490;56;1136607;-73
2021/05/04 04:11:06;;;;;;;21.63;8.67;;;;;;;4.88;77.43;100297.48;5152462;56;1138996;-73
2021/05/04 04:16:12;;;;;;;11.60;7.20;;;;;;;4.95;77.66;100287.47;5152492;56;1136693;-73
2021/05/04 04:21:18;;;;;;;13.40;7.00;;;;;;;5.01;77.63;100285.81;5152670;56;1136690;-73
2021/05/04 04:26:23;;;;;;;16.17;6.60;;;;;;;5.02;77.40;100267.84;5152647;56;1136521;-73
2021/05/04 04:31:29;;;;;;;10.27;6.60;;;;;;;5.01;77.44;100268.77;5152715;56;1136423;-73
2021/05/04 04:36:35;;;;;;;11.53;7.27;;;;;;;5.02;77.51;100258.67;5152479;56;1136675;-73
2021/05/04 04:41:41;;;;;;;459.73;236.50;;;;;;;5.03;77.38;100252.96;5152507;56;1136726;-74
2021/05/04 04:46:47;;;;;;;130.90;75.17;;;;;;;5.06;77.08;100231.32;5152036;56;1142792;-73
2021/05/04 04:51:53;;;;;;;19.10;11.73;;;;;;;5.16;76.94;100233.80;5151757;56;1142702;-73
2021/05/04 04:56:59;;;;;;;12.73;6.80;;;;;;;5.32;76.68;100216.67;5152215;56;1138654;-74
2021/05/04 05:02:04;;;;;;;25.43;13.00;;;;;;;5.32;76.68;100216.67;5152487;56;1136442;-73
2021/05/04 05:07:10;;;;;;;29.50;17.27;;;;;;;5.37;76.84;100201.95;5152384;56;1138510;-73
2021/05/04 05:12:16;;;;;;;73.23;42.53;;;;;;;5.42;76.46;100194.65;5152560;56;1138505;-74
2021/05/04 05:17:22;;;;;;;51.33;27.77;;;;;;;5.50;76.33;100190.60;5152232;56;1138711;-74
2021/05/04 05:22:29;;;;;;;7.50;4.77;;;;;;;5.60;76.13;100178.63;5152428;56;1143068;-73
2021/05/04 05:27:34;;;;;;;8.37;5.10;;;;;;;5.71;75.52;100181.03;5152705;56;1134421;-74
2021/05/04 05:32:40;;;;;;;7.93;4.80;;;;;;;5.79;75.39;100170.91;5152802;56;1134476;-73
2021/05/04 05:37:45;;;;;;;10.70;5.40;;;;;;;5.90;74.70;100171.09;5152780;56;1134423;-73
2021/05/04 05:42:51;;;;;;;6.37;2.93;;;;;;;6.04;74.73;100157.09;5152626;56;1138515;-73
2021/05/04 05:47:57;;;;;;;16.10;6.10;;;;;;;6.17;74.04;100148.78;5152963;56;1134390;-73
2021/05/04 05:53:03;;;;;;;17.67;6.77;;;;;;;6.26;74.29;100130.62;5152706;56;1136349;-73
2021/05/04 05:58:08;;;;;;;11.43;5.80;;;;;;;6.38;73.85;100132.94;5152759;56;1136279;-73
2021/05/04 06:03:14;;;;;;;7.12;5.58;;;;;;;6.52;73.28;100118.87;5151987;56;1138757;-73
2021/05/04 06:08:20;;;;;;;8.70;5.77;;;;;;;6.61;73.48;100116.45;5152305;56;1134129;-74
2021/05/04 06:13:25;;;;;;;4.87;3.87;;;;;;;6.73;72.62;100120.51;5152407;56;1142132;-75
2021/05/04 06:18:31;;;;;;;19.35;7.50;;;;;;;6.82;71.24;100101.50;5135324;56;1134220;-73
2021/05/04 06:23:37;;;;;;;6.75;4.40;;;;;;;6.96;72.27;100085.14;5152004;56;1138820;-73
2021/05/04 06:28:48;;;;;;;8.20;4.10;;;;;;;7.08;70.79;100082.13;5152775;56;1134271;-74
2021/05/04 06:33:50;;;;;;;8.83;4.30;;;;;;;7.20;70.38;100069.89;5152345;56;1134101;-74
2021/05/04 06:38:55;;;;;;;8.43;5.80;;;;;;;7.34;69.59;100059.23;5152640;56;1134240;-73
2021/05/04 06:44:02;;;;;;;9.47;5.20;;;;;;;7.50;70.38;100049.76;5148185;54;1136576;-76
2021/05/04 06:49:08;;;;;;;10.27;5.83;;;;;;;7.62;70.21;100043.63;5116228;56;1134271;-72
2021/05/04 06:54:15;;;;;;;9.97;5.37;;;;;;;7.78;69.29;100038.08;5097112;56;1136788;-76
2021/05/04 06:59:21;;;;;;;8.90;5.10;;;;;;;7.90;69.46;100022.69;5065991;56;1134188;-75
2021/05/04 07:04:27;;;;;;;9.23;6.60;;;;;;;8.10;70.80;100018.91;5065354;57;1136365;-75
2021/05/04 07:09:33;;;;;;;8.13;5.03;;;;;;;8.37;70.31;100007.28;5065301;57;1136479;-72
2021/05/04 07:14:39;;;;;;;8.18;5.72;;;;;;;8.58;68.79;100001.66;5065450;57;1136368;-74
2021/05/04 07:19:44;;;;;;;14.37;6.47;;;;;;;8.76;67.81;100002.03;5065205;57;1136602;-75
2021/05/04 07:24:50;;;;;;;10.03;6.17;;;;;;;8.90;68.98;99993.87;5064871;57;1136492;-77
2021/05/04 07:29:56;;;;;;;6.30;4.60;;;;;;;9.04;67.86;99975.63;5065524;56;1134263;-75
2021/05/04 07:35:02;;;;;;;6.50;4.10;;;;;;;9.11;66.42;99957.88;5065708;57;1132465;-74
2021/05/04 07:40:08;;;;;;;9.80;5.50;;;;;;;9.23;65.75;99956.05;5064962;57;1132583;-75
2021/05/04 07:45:14;;;;;;;11.20;5.70;;;;;;;9.41;66.50;99948.44;5064558;56;1132504;-73
2021/05/04 07:50:20;;;;;;;6.70;4.67;;;;;;;9.57;66.83;99928.22;5063822;57;1136247;-78
2021/05/04 07:55:27;;;;;;;6.78;5.17;;;;;;;9.72;66.25;99922.98;5078950;57;1134597;-78
2021/05/04 08:00:32;;;;;;;7.37;4.30;;;;;;;9.83;65.46;99903.11;5051774;57;1134370;-71
2021/05/04 08:05:38;;;;;;;4.72;3.40;;;;;;;9.93;63.22;99901.87;5062035;57;1134626;-76
2021/05/04 08:10:43;;;;;;;6.83;4.97;;;;;;;10.01;62.72;99901.56;5061612;57;1134613;-72
2021/05/04 08:15:52;;;;;;;7.43;4.10;;;;;;;10.09;62.65;99891.64;5061730;57;1136956;-74
2021/05/04 08:21:00;;;;;;;10.50;7.70;;;;;;;10.14;61.82;99885.01;5061683;57;1136697;-74
2021/05/04 08:26:06;;;;;;;9.17;5.23;;;;;;;10.23;63.29;99868.89;5061422;57;1138776;-73
2021/05/04 08:31:11;;;;;;;7.20;5.30;;;;;;;10.32;63.07;99852.71;5060899;57;1136842;-76
2021/05/04 08:36:17;;;;;;;10.13;4.30;;;;;;;10.43;62.96;99838.06;5061277;57;1136494;-72
2021/05/04 08:41:30;;;;;;;7.63;5.27;;;;;;;10.56;60.83;99832.04;5060970;57;1138924;-74
2021/05/04 08:46:37;;;;;;;10.30;5.47;;;;;;;10.63;61.42;99815.16;5117619;55;1136631;-74
2021/05/04 08:51:49;;;;;;;11.13;5.97;;;;;;;10.73;61.30;99813.36;5150966;56;1138794;-77
2021/05/04 08:56:55;;;;;;;5.73;4.10;;;;;;;10.80;61.81;99804.75;5146947;56;1138683;-76
2021/05/04 09:02:02;;;;;;;11.87;5.37;;;;;;;10.96;59.94;99788.33;5150345;56;1136557;-74
2021/05/04 09:07:27;;;;;;;8.90;5.90;;;;;;;11.14;61.00;99781.85;5150880;56;1138885;-74
2021/05/04 09:12:43;;;;;;;8.88;6.17;;;;;;;11.24;60.10;99758.84;5150982;56;1143360;-74
2021/05/04 09:17:49;;;;;;;13.38;5.37;;;;;;;11.37;60.88;99746.62;5150841;56;1136562;-73
2021/05/04 09:22:52;;;;;;;6.63;4.83;;;;;;;11.52;60.35;99738.57;5144533;56;1138768;-74
2021/05/04 09:28:02;;;;;;;8.63;4.40;;;;;;;11.62;59.23;99716.85;5151372;56;1136247;-73
2021/05/04 09:33:17;;;;;;;10.10;5.63;;;;;;;11.67;58.02;99697.39;5150958;56;1136670;-74
2021/05/04 09:38:21;;;;;;;6.57;5.20;;;;;;;11.74;60.10;99695.84;5150751;56;1138543;-73
2021/05/04 09:43:28;;;;;;;10.30;6.83;;;;;;;11.80;57.57;99674.08;5151572;56;1136569;-74
2021/05/04 09:48:42;;;;;;;11.43;7.35;;;;;;;11.87;56.22;99653.97;5151984;56;1139015;-74
2021/05/04 09:54:21;;;;;;;19.92;7.25;;;;;;;11.89;56.44;99644.55;5151400;56;1138830;-74
2021/05/04 09:58:58;;;;;;;9.17;4.97;;;;;;;11.88;56.57;99626.98;5139485;56;1138673;-73
2021/05/04 10:04:06;;;;;;;11.90;6.10;;;;;;;11.93;57.01;99620.23;5148184;56;1136756;-73
2021/05/04 10:09:11;;;;;;;6.67;5.73;;;;;;;12.00;56.25;99604.58;5152098;56;1138790;-73
2021/05/04 10:14:17;;;;;;;6.23;5.13;;;;;;;12.04;56.82;99588.73;5152300;56;1136612;-73
2021/05/04 10:19:23;;;;;;;8.40;5.40;;;;;;;12.10;56.00;99570.05;5152366;56;1136515;-74
2021/05/04 10:24:29;;;;;;;12.90;5.30;;;;;;;12.17;55.51;99555.22;5151943;56;1136684;-74
2021/05/04 10:29:41;;;;;;;10.57;4.87;;;;;;;12.28;56.81;99553.64;5140769;56;1139040;-83
2021/05/04 10:34:46;;;;;;;12.00;5.58;;;;;;;12.43;54.76;99549.95;5152114;56;1138502;-74
2021/05/04 10:39:53;;;;;;;7.20;4.43;;;;;;;12.54;54.22;99527.14;5152139;56;1138404;-75
2021/05/04 10:45:05;;;;;;;12.73;6.07;;;;;;;12.69;55.18;99523.77;5152093;56;1136449;-77
2021/05/04 10:50:13;;;;;;;10.37;4.63;;;;;;;12.83;55.03;99500.31;5151952;56;1138652;-74
2021/05/04 10:55:21;;;;;;;5.83;4.53;;;;;;;12.95;55.46;99492.41;5150248;56;1138558;-76
2021/05/04 11:01:04;;;;;;;13.38;5.60;;;;;;;13.04;53.98;99482.98;5138593;56;1136917;-77
2021/05/04 11:06:24;;;;;;;9.90;4.60;;;;;;;13.07;53.30;99479.18;5120047;55;1138502;-76
2021/05/04 11:11:41;;;;;;;6.00;4.62;;;;;;;13.09;52.19;99461.77;5119216;56;1136874;-77
2021/05/04 11:16:59;;;;;;;12.30;4.50;;;;;;;13.36;52.97;99437.14;5124279;56;1136636;-75
2021/05/04 11:22:16;;;;;;;4.57;3.90;;;;;;;13.36;52.97;99437.14;5123438;56;1138900;-77
2021/05/04 11:27:29;;;;;;;6.93;5.30;;;;;;;13.59;51.80;99437.86;5122216;56;1136671;-77
2021/05/04 11:32:42;;;;;;;3.83;3.22;;;;;;;13.79;51.41;99415.75;5151460;55;1136483;-76
2021/05/04 11:37:50;;;;;;;5.60;3.65;;;;;;;14.08;50.77;99416.06;5152473;55;1136724;-74
2021/05/04 11:43:02;;;;;;;3.70;2.97;;;;;;;14.25;49.95;99407.56;5152257;55;1136783;-76
2021/05/04 11:48:15;;;;;;;7.40;5.27;;;;;;;14.35;48.33;99392.27;5152297;55;1136755;-79
2021/05/04 11:53:19;;;;;;;10.27;5.30;;;;;;;14.37;48.75;99384.91;5151418;55;1136888;-78
2021/05/04 11:58:28;;;;;;;6.23;3.27;;;;;;;14.37;49.12;99408.36;5152045;55;1138834;-76
2021/05/04 12:03:34;;;;;;;12.53;4.07;;;;;;;14.38;46.88;99430.47;5146898;55;1136695;-76
2021/05/04 12:08:40;;;;;;;5.78;4.00;;;;;;;14.22;47.84;99437.14;5122308;56;1138758;-76
2021/05/04 12:13:45;;;;;;;6.30;3.27;;;;;;;13.86;51.21;99438.86;5122740;56;1136683;-70
2021/05/04 12:18:51;;;;;;;3.37;2.90;;;;;;;13.48;55.53;99466.87;5123127;56;1136578;-76
2021/05/04 12:23:57;;;;;;;3.87;3.50;;;;;;;12.78;62.72;99531.30;5124936;56;1136628;-80
2021/05/04 12:29:03;;;;;;;6.83;4.23;;;;;;;12.08;67.27;99534.91;5128110;56;1136731;-75
2021/05/04 12:34:09;;;;;;;6.83;5.10;;;;;;;11.51;70.62;99518.44;5135966;55;1136717;-78
2021/05/04 12:39:33;;;;;;;8.30;3.73;;;;;;;11.18;72.41;99516.74;5154373;56;1136263;-75
2021/05/04 12:44:38;;;;;;;6.13;5.17;;;;;;;11.07;73.07;99508.17;5122360;56;1136418;-78
2021/05/04 12:49:47;;;;;;;6.73;4.10;;;;;;;11.03;72.50;99510.27;5065283;57;1136621;-78
2021/05/04 12:54:53;;;;;;;8.03;4.33;;;;;;;11.03;72.35;99501.50;5064292;57;1136319;-77
2021/05/04 12:59:59;;;;;;;16.40;10.50;;;;;;;11.04;73.46;99484.16;5064636;57;1136456;-74
2021/05/04 13:05:10;;;;;;;4.60;3.50;;;;;;;11.01;73.86;99480.97;5062871;57;1140397;-76
2021/05/04 13:31:37;;;;;;;4.90;4.20;;;;;;;11.24;74.62;99386.97;5065166;57;1134646;-78
2021/05/04 13:36:43;;;;;;;8.70;5.87;;;;;;;11.28;74.18;99373.29;5064638;57;1136649;-75
2021/05/04 13:47:34;;;;;;;3.95;3.65;;;;;;;11.36;73.23;99370.36;5125457;56;1136447;-75
2021/05/04 13:52:37;;;;;;;4.45;3.42;;;;;;;11.38;73.45;99355.98;5129752;56;1136917;-76
2021/05/04 13:57:51;;;;;;;68.97;19.07;;;;;;;11.43;73.17;99350.25;5124064;56;1136711;-77
2021/05/04 14:03:17;;;;;;;12.87;10.53;;;;;;;11.45;73.66;99352.25;5126549;56;1140845;-76
2021/05/04 14:29:35;;;;;;;5.90;4.30;;;;;;;11.56;72.93;99322.87;5133986;56;1136205;-72
2021/05/04 14:34:43;;;;;;;4.72;3.60;;;;;;;11.57;72.73;99313.45;5149383;56;1136456;-76
2021/05/04 14:40:00;;;;;;;15.00;7.53;;;;;;;11.62;72.47;99311.16;5101084;56;1136843;-74
2021/05/04 14:45:18;;;;;;;4.83;4.33;;;;;;;11.67;72.14;99310.70;5096167;56;1138773;-79
2021/05/04 15:01:19;;;;;;;7.97;4.00;;;;;;;11.92;68.03;99295.31;5114553;56;973702;-77
2021/05/04 15:06:19;;;;;;;20.97;9.80;;;;;;;12.09;66.99;99286.13;5100957;56;1134176;-74
2021/05/04 15:11:26;;;;;;;13.87;8.03;;;;;;;12.23;66.49;99285.52;5100780;56;1138605;-77
2021/05/04 15:16:45;;;;;;;32.88;15.48;;;;;;;12.34;66.28;99286.58;5100731;56;1138821;-78
2021/05/04 15:26:47;;;;;;;21.65;9.65;;;;;;;12.48;65.40;99266.56;5146308;56;1139041;-73
2021/05/04 15:32:01;;;;;;;2.30;1.95;;;;;;;12.53;63.27;99267.72;5153245;56;1138755;-79
2021/05/04 15:37:02;;;;;;;3.53;1.97;;;;;;;12.61;61.17;99233.28;5152976;56;1136868;-78
2021/05/04 15:42:10;;;;;;;7.47;3.80;;;;;;;12.73;60.63;99227.15;5134126;56;1136698;-75
2021/05/04 15:47:22;;;;;;;4.07;2.20;;;;;;;12.78;61.00;99231.48;5101224;56;1136702;-79
2021/05/04 16:08:34;;;;;;;6.13;2.57;;;;;;;12.78;61.64;99194.33;5092549;56;1136722;-78
2021/05/04 16:13:37;;;;;;;3.57;1.67;;;;;;;12.77;61.49;99187.36;5092431;56;1136816;-78
2021/05/04 16:18:45;;;;;;;4.60;3.30;;;;;;;12.79;61.33;99197.32;5092575;56;1136699;-78
2021/05/04 16:29:21;;;;;;;17.40;3.87;;;;;;;12.77;63.27;99194.50;5093625;56;1136684;-78
2021/05/04 16:34:05;;;;;;;10.93;4.27;;;;;;;12.62;66.81;99179.23;5105133;56;1138782;-75
2021/05/04 16:39:11;;;;;;;18.40;8.80;;;;;;;12.38;67.98;99175.70;5152351;56;1138819;-75
2021/05/04 16:44:17;;;;;;;36.67;24.57;;;;;;;12.20;68.70;99191.77;5154589;56;1138843;-79
2021/05/04 16:49:28;;;;;;;3.35;2.50;;;;;;;12.06;70.03;99189.73;5098011;56;1140890;-73
2021/05/04 16:54:34;;;;;;;38.37;15.30;;;;;;;12.03;68.85;99190.05;5094040;56;1136769;-77
2021/05/04 16:59:41;;;;;;;5.57;3.73;;;;;;;12.03;69.57;99178.13;5100892;56;1140961;-76
2021/05/04 17:04:48;;;;;;;9.25;4.90;;;;;;;12.00;69.10;99155.42;5100349;56;1136597;-74
2021/05/04 17:15:11;;;;;;;23.70;9.17;;;;;;;12.01;68.86;99144.33;5099744;56;1141012;-79
2021/05/04 17:20:19;;;;;;;16.80;6.80;;;;;;;12.01;68.42;99145.66;5100368;56;1138802;-78
2021/05/04 17:25:29;;;;;;;6.33;4.37;;;;;;;12.05;68.13;99136.40;5072225;56;1138643;-74
2021/05/04 17:30:31;;;;;;;10.30;4.83;;;;;;;12.05;68.64;99143.02;5013743;57;1136684;-76
2021/05/04 17:35:37;;;;;;;9.10;3.83;;;;;;;12.01;68.33;99137.70;5013688;57;1148263;-75
2021/05/04 17:40:45;;;;;;;6.95;3.27;;;;;;;11.97;69.44;99157.89;5013125;57;1136853;-76
2021/05/04 17:45:51;;;;;;;3.62;2.72;;;;;;;11.90;70.14;99166.17;5014297;57;1136568;-74
2021/05/04 17:50:57;;;;;;;6.37;2.93;;;;;;;11.73;68.66;99159.61;5013790;57;1136653;-77
2021/05/04 17:56:06;;;;;;;14.17;5.03;;;;;;;11.54;68.80;99145.62;5023527;57;1136446;-75
2021/05/04 18:01:13;;;;;;;5.53;3.20;;;;;;;11.42;69.19;99133.66;5065751;57;1138881;-78
2021/05/04 18:06:22;;;;;;;3.23;2.17;;;;;;;11.34;68.56;99132.27;5065832;56;1136410;-78
2021/05/04 18:11:28;;;;;;;3.23;2.10;;;;;;;11.26;68.87;99124.30;5066035;57;1136682;-80
2021/05/04 18:21:57;;;;;;;6.62;2.58;;;;;;;11.18;67.99;99122.92;5065527;57;1136790;-74
2021/05/04 18:27:03;;;;;;;8.47;4.60;;;;;;;11.16;67.45;99114.30;5065336;57;1136645;-76
2021/05/04 18:32:17;;;;;;;1.83;1.47;;;;;;;11.14;67.80;99098.61;5065421;57;1136683;-73
2021/05/04 18:37:39;;;;;;;3.27;2.33;;;;;;;11.13;67.19;99106.21;5063687;57;1136737;-73
2021/05/04 18:43:24;;;;;;;22.87;6.10;;;;;;;11.17;67.20;99121.26;5062681;57;1136868;-74
2021/05/04 19:04:28;;;;;;;4.22;2.80;;;;;;;11.15;67.34;99116.64;5123339;56;1137056;-73
2021/05/04 19:09:30;;;;;;;7.53;4.07;;;;;;;11.14;67.70;99111.02;5120034;55;1136795;-74
2021/05/04 20:12:45;;;;;;;5.70;3.15;;;;;;;10.84;70.10;99099.09;5154163;56;1138752;-77
2021/05/04 20:17:54;;;;;;;7.95;4.67;;;;;;;10.86;69.76;99106.35;5152762;56;1136266;-77
2021/05/04 20:22:58;;;;;;;10.55;5.42;;;;;;;10.84;69.90;99108.34;5152347;56;1136426;-76
2021/05/04 20:28:06;;;;;;;12.33;5.10;;;;;;;10.87;69.90;99094.79;5152033;56;1138748;-77
2021/05/04 20:33:14;;;;;;;8.30;4.47;;;;;;;10.89;69.79;99094.14;5151626;56;1138685;-76
2021/05/04 20:38:20;;;;;;;7.93;3.87;;;;;;;10.90;69.76;99091.84;5152297;56;1136558;-77
2021/05/04 20:43:26;;;;;;;9.00;4.20;;;;;;;10.89;69.61;99091.00;5152459;56;1136453;-76
2021/05/04 20:48:35;;;;;;;9.40;4.50;;;;;;;10.91;69.30;99100.11;5152252;56;1136429;-74
2021/05/04 20:53:41;;;;;;;5.25;3.62;;;;;;;10.91;68.78;99107.55;5153645;56;1140367;-76
2021/05/04 20:58:47;;;;;;;13.08;5.58;;;;;;;10.90;68.67;99103.74;5137384;56;1136657;-73
2021/05/04 21:03:54;;;;;;;6.30;3.12;;;;;;;10.92;68.01;99110.54;5148393;56;1138707;-77
2021/05/04 21:09:05;;;;;;;6.50;3.50;;;;;;;10.96;66.83;99119.49;5135736;56;1136433;-75
2021/05/04 21:14:07;;;;;;;12.13;5.20;;;;;;;11.03;67.24;99121.84;5143870;56;1136381;-79
2021/05/04 21:19:30;;;;;;;8.70;5.53;;;;;;;11.03;66.35;99131.09;5152789;56;1138281;-77
2021/05/04 21:24:35;;;;;;;12.10;3.93;;;;;;;11.04;67.30;99130.94;5151511;56;1136647;-76
2021/05/04 21:29:38;;;;;;;9.80;2.77;;;;;;;11.01;67.58;99126.45;5152730;56;1138294;-75
2021/05/04 21:34:45;;;;;;;4.50;1.47;;;;;;;10.97;66.22;99119.34;5153077;56;1141218;-78
2021/05/04 21:39:51;;;;;;;4.22;1.57;;;;;;;10.99;65.85;99116.55;5152993;56;1136564;-79
2021/05/04 21:44:57;;;;;;;6.72;1.60;;;;;;;11.01;64.45;99118.52;5153076;56;1136552;-75
2021/05/04 21:50:03;;;;;;;5.87;1.73;;;;;;;11.01;64.61;99121.98;5152821;56;1136446;-74
2021/05/04 21:55:12;;;;;;;9.33;2.30;;;;;;;10.99;64.72;99123.98;5152712;56;1136623;-76
2021/05/04 22:00:20;;;;;;;3.03;1.70;;;;;;;10.95;64.83;99116.02;5152607;56;1136570;-75
2021/05/04 22:05:27;;;;;;;13.90;5.77;;;;;;;10.90;64.81;99115.16;5104691;56;1136600;-79
2021/05/04 22:10:36;;;;;;;5.17;2.37;;;;;;;10.85;65.14;99117.91;5089749;57;1138548;-76
2021/05/04 22:21:25;;;;;;;4.20;2.40;;;;;;;10.74;65.78;99115.53;5077010;57;1136312;-78
2021/05/04 22:37:02;;;;;;;7.43;2.60;;;;;;;10.63;66.62;99124.55;5016013;57;1136933;-77
2021/05/04 22:42:19;;;;;;;3.93;2.10;;;;;;;10.57;67.08;99132.59;5015009;57;1137018;-77
2021/05/04 23:19:24;;;;;;;3.77;0.70;;;;;;;9.74;70.51;99167.22;5189621;56;971944;-74
2021/05/04 23:24:30;;;;;;;2.27;1.10;;;;;;;9.59;71.48;99160.77;5175620;56;1132531;-79
2021/05/04 23:29:35;;;;;;;1.27;0.73;;;;;;;9.46;72.52;99157.97;5175538;56;1134558;-76
2021/05/04 23:34:41;;;;;;;1.15;0.93;;;;;;;9.40;72.99;99122.08;5175472;56;1134477;-75
2021/05/04 23:39:46;;;;;;;2.60;0.80;;;;;;;9.30;73.98;99122.13;5175645;56;1134650;-75
2021/05/04 23:44:52;;;;;;;1.40;0.45;;;;;;;9.25;73.24;99104.58;5175625;56;1134545;-76
2021/05/04 23:49:57;;;;;;;2.27;0.80;;;;;;;9.21;74.73;99099.24;5175632;56;1134648;-78
2021/05/04 23:55:04;;;;;;;8.70;0.77;;;;;;;9.18;73.91;99089.80;5175688;56;1134451;-78
